sensor_id;sensor_type;location;lat;lon;timestamp;P1;durP1;ratioP1;P2;durP2;ratioP2
37303;SDS011;23188;51.188;16.374;2024-01-07T00:03:26;31.30;;;16.30;;
37303;SDS011;23188;51.188;16.374;2024-01-07T00:07:29;25.00;;;15.90;;
37303;SDS011;23188;51.188;16.374;2024-01-07T00:11:32;29.80;;;16.30;;
37303;SDS011;23188;51.188;16.374;2024-01-07T00:15:35;25.60;;;16.50;;
37303;SDS011;23188;51.188;16.374;2024-01-07T00:19:39;23.40;;;16.00;;
37303;SDS011;23188;51.188;16.374;2024-01-07T00:23:43;25.20;;;16.20;;
37303;SDS011;23188;51.188;16.374;2024-01-07T00:27:46;26.90;;;15.40;;
37303;SDS011;23188;51.188;16.374;2024-01-07T00:31:49;33.20;;;19.40;;
37303;SDS011;23188;51.188;16.374;2024-01-07T00:35:53;25.10;;;12.50;;
37303;SDS011;23188;51.188;16.374;2024-01-07T00:39:56;22.40;;;13.10;;
37303;SDS011;23188;51.188;16.374;2024-01-07T00:43:59;21.50;;;13.30;;
37303;SDS011;23188;51.188;16.374;2024-01-07T00:48:02;18.70;;;11.20;;
37303;SDS011;23188;51.188;16.374;2024-01-07T00:52:06;22.00;;;12.30;;
37303;SDS011;23188;51.188;16.374;2024-01-07T00:56:10;21.70;;;14.50;;
37303;SDS011;23188;51.188;16.374;2024-01-07T01:00:13;19.90;;;11.80;;
37303;SDS011;23188;51.188;16.374;2024-01-07T01:04:16;21.80;;;13.00;;
37303;SDS011;23188;51.188;16.374;2024-01-07T01:08:20;20.80;;;13.00;;
37303;SDS011;23188;51.188;16.374;2024-01-07T01:12:23;18.80;;;13.90;;
37303;SDS011;23188;51.188;16.374;2024-01-07T01:16:26;27.00;;;18.20;;
37303;SDS011;23188;51.188;16.374;2024-01-07T01:20:29;19.60;;;11.20;;
37303;SDS011;23188;51.188;16.374;2024-01-07T01:24:32;17.00;;;10.80;;
37303;SDS011;23188;51.188;16.374;2024-01-07T01:28:35;23.30;;;15.00;;
37303;SDS011;23188;51.188;16.374;2024-01-07T01:32:39;19.70;;;12.10;;
37303;SDS011;23188;51.188;16.374;2024-01-07T01:36:42;30.00;;;14.90;;
37303;SDS011;23188;51.188;16.374;2024-01-07T01:40:52;20.00;;;13.30;;
37303;SDS011;23188;51.188;16.374;2024-01-07T01:44:56;25.50;;;12.80;;
37303;SDS011;23188;51.188;16.374;2024-01-07T01:49:02;19.40;;;11.90;;
37303;SDS011;23188;51.188;16.374;2024-01-07T01:53:06;16.60;;;12.20;;
37303;SDS011;23188;51.188;16.374;2024-01-07T01:57:09;20.40;;;11.40;;
37303;SDS011;23188;51.188;16.374;2024-01-07T02:01:19;23.70;;;12.50;;
37303;SDS011;23188;51.188;16.374;2024-01-07T02:05:22;22.40;;;15.20;;
37303;SDS011;23188;51.188;16.374;2024-01-07T02:09:26;19.90;;;12.30;;
37303;SDS011;23188;51.188;16.374;2024-01-07T02:13:29;27.00;;;16.60;;
37303;SDS011;23188;51.188;16.374;2024-01-07T02:17:32;20.70;;;13.80;;
37303;SDS011;23188;51.188;16.374;2024-01-07T02:21:35;18.50;;;15.00;;
37303;SDS011;23188;51.188;16.374;2024-01-07T02:25:39;16.70;;;13.60;;
37303;SDS011;23188;51.188;16.374;2024-01-07T02:29:42;28.00;;;17.40;;
37303;SDS011;23188;51.188;16.374;2024-01-07T02:33:45;15.80;;;12.50;;
37303;SDS011;23188;51.188;16.374;2024-01-07T02:37:48;16.40;;;12.60;;
37303;SDS011;23188;51.188;16.374;2024-01-07T02:41:52;21.30;;;12.40;;
37303;SDS011;23188;51.188;16.374;2024-01-07T02:45:55;24.60;;;13.30;;
37303;SDS011;23188;51.188;16.374;2024-01-07T02:49:58;16.30;;;12.40;;
37303;SDS011;23188;51.188;16.374;2024-01-07T02:54:01;20.40;;;11.70;;
37303;SDS011;23188;51.188;16.374;2024-01-07T02:58:04;15.70;;;10.70;;
37303;SDS011;23188;51.188;16.374;2024-01-07T03:02:08;21.80;;;12.70;;
37303;SDS011;23188;51.188;16.374;2024-01-07T03:06:11;20.90;;;13.20;;
37303;SDS011;23188;51.188;16.374;2024-01-07T03:10:14;17.70;;;12.00;;
37303;SDS011;23188;51.188;16.374;2024-01-07T03:14:17;22.40;;;11.40;;
37303;SDS011;23188;51.188;16.374;2024-01-07T03:18:23;16.60;;;12.60;;
37303;SDS011;23188;51.188;16.374;2024-01-07T03:22:26;16.90;;;12.70;;
37303;SDS011;23188;51.188;16.374;2024-01-07T03:26:30;20.60;;;11.70;;
37303;SDS011;23188;51.188;16.374;2024-01-07T03:30:36;17.70;;;13.20;;
37303;SDS011;23188;51.188;16.374;2024-01-07T03:34:40;19.20;;;11.90;;
37303;SDS011;23188;51.188;16.374;2024-01-07T03:38:43;19.80;;;11.50;;
37303;SDS011;23188;51.188;16.374;2024-01-07T03:42:46;18.40;;;12.30;;
37303;SDS011;23188;51.188;16.374;2024-01-07T03:46:50;15.30;;;11.80;;
37303;SDS011;23188;51.188;16.374;2024-01-07T03:50:53;18.60;;;14.10;;
37303;SDS011;23188;51.188;16.374;2024-01-07T03:54:56;17.30;;;12.80;;
37303;SDS011;23188;51.188;16.374;2024-01-07T03:59:00;20.80;;;13.80;;
37303;SDS011;23188;51.188;16.374;2024-01-07T04:03:03;17.30;;;11.30;;
37303;SDS011;23188;51.188;16.374;2024-01-07T04:07:06;25.20;;;13.30;;
37303;SDS011;23188;51.188;16.374;2024-01-07T04:11:09;18.40;;;10.70;;
37303;SDS011;23188;51.188;16.374;2024-01-07T04:15:13;21.10;;;13.60;;
37303;SDS011;23188;51.188;16.374;2024-01-07T04:19:16;15.30;;;11.20;;
37303;SDS011;23188;51.188;16.374;2024-01-07T04:23:19;18.60;;;11.90;;
37303;SDS011;23188;51.188;16.374;2024-01-07T04:27:22;15.10;;;11.20;;
37303;SDS011;23188;51.188;16.374;2024-01-07T04:31:27;18.40;;;11.20;;
37303;SDS011;23188;51.188;16.374;2024-01-07T04:35:30;16.70;;;10.50;;
37303;SDS011;23188;51.188;16.374;2024-01-07T04:39:34;13.70;;;10.60;;
37303;SDS011;23188;51.188;16.374;2024-01-07T04:43:37;14.40;;;10.20;;
37303;SDS011;23188;51.188;16.374;2024-01-07T04:47:40;16.00;;;9.90;;
37303;SDS011;23188;51.188;16.374;2024-01-07T04:51:43;14.60;;;9.00;;
37303;SDS011;23188;51.188;16.374;2024-01-07T04:55:46;16.70;;;12.70;;
37303;SDS011;23188;51.188;16.374;2024-01-07T04:59:49;12.50;;;9.30;;
37303;SDS011;23188;51.188;16.374;2024-01-07T05:03:53;17.10;;;9.80;;
37303;SDS011;23188;51.188;16.374;2024-01-07T05:07:56;18.30;;;11.40;;
37303;SDS011;23188;51.188;16.374;2024-01-07T05:12:01;16.50;;;9.80;;
37303;SDS011;23188;51.188;16.374;2024-01-07T05:16:05;18.40;;;12.10;;
37303;SDS011;23188;51.188;16.374;2024-01-07T05:20:09;22.80;;;11.80;;
37303;SDS011;23188;51.188;16.374;2024-01-07T05:24:13;16.40;;;10.70;;
37303;SDS011;23188;51.188;16.374;2024-01-07T05:28:16;13.60;;;10.40;;
37303;SDS011;23188;51.188;16.374;2024-01-07T05:32:22;21.00;;;14.80;;
37303;SDS011;23188;51.188;16.374;2024-01-07T05:36:25;14.40;;;9.80;;
37303;SDS011;23188;51.188;16.374;2024-01-07T05:40:29;15.70;;;11.10;;
37303;SDS011;23188;51.188;16.374;2024-01-07T05:44:32;14.80;;;9.70;;
37303;SDS011;23188;51.188;16.374;2024-01-07T05:48:45;15.80;;;10.00;;
37303;SDS011;23188;51.188;16.374;2024-01-07T05:52:50;14.00;;;9.20;;
37303;SDS011;23188;51.188;16.374;2024-01-07T05:56:54;20.80;;;12.20;;
37303;SDS011;23188;51.188;16.374;2024-01-07T06:00:57;16.40;;;12.30;;
37303;SDS011;23188;51.188;16.374;2024-01-07T06:05:01;14.80;;;10.00;;
37303;SDS011;23188;51.188;16.374;2024-01-07T06:09:05;21.60;;;11.40;;
37303;SDS011;23188;51.188;16.374;2024-01-07T06:13:09;13.60;;;9.90;;
37303;SDS011;23188;51.188;16.374;2024-01-07T06:17:12;14.70;;;11.70;;
37303;SDS011;23188;51.188;16.374;2024-01-07T06:21:15;20.50;;;12.30;;
37303;SDS011;23188;51.188;16.374;2024-01-07T06:25:19;19.10;;;11.20;;
37303;SDS011;23188;51.188;16.374;2024-01-07T06:29:23;17.10;;;10.10;;
37303;SDS011;23188;51.188;16.374;2024-01-07T06:33:26;17.10;;;11.20;;
37303;SDS011;23188;51.188;16.374;2024-01-07T06:37:30;14.80;;;9.70;;
37303;SDS011;23188;51.188;16.374;2024-01-07T06:41:34;12.70;;;10.60;;
37303;SDS011;23188;51.188;16.374;2024-01-07T06:45:37;13.00;;;10.30;;
37303;SDS011;23188;51.188;16.374;2024-01-07T06:49:40;19.00;;;13.30;;
37303;SDS011;23188;51.188;16.374;2024-01-07T06:53:44;15.80;;;10.00;;
37303;SDS011;23188;51.188;16.374;2024-01-07T06:57:47;14.50;;;9.00;;
37303;SDS011;23188;51.188;16.374;2024-01-07T07:01:50;16.00;;;11.40;;
37303;SDS011;23188;51.188;16.374;2024-01-07T07:05:54;14.30;;;10.30;;
37303;SDS011;23188;51.188;16.374;2024-01-07T07:09:57;13.40;;;9.70;;
37303;SDS011;23188;51.188;16.374;2024-01-07T07:14:02;10.70;;;8.80;;
37303;SDS011;23188;51.188;16.374;2024-01-07T07:18:05;11.30;;;9.30;;
37303;SDS011;23188;51.188;16.374;2024-01-07T07:22:08;12.90;;;8.70;;
37303;SDS011;23188;51.188;16.374;2024-01-07T07:26:12;10.00;;;7.90;;
37303;SDS011;23188;51.188;16.374;2024-01-07T07:30:15;18.20;;;12.60;;
37303;SDS011;23188;51.188;16.374;2024-01-07T07:34:18;16.30;;;10.70;;
37303;SDS011;23188;51.188;16.374;2024-01-07T07:38:23;16.30;;;11.30;;
37303;SDS011;23188;51.188;16.374;2024-01-07T07:42:26;22.40;;;12.40;;
37303;SDS011;23188;51.188;16.374;2024-01-07T07:50:35;14.00;;;9.80;;
37303;SDS011;23188;51.188;16.374;2024-01-07T07:54:38;14.40;;;10.80;;
37303;SDS011;23188;51.188;16.374;2024-01-07T07:58:42;13.40;;;10.80;;
37303;SDS011;23188;51.188;16.374;2024-01-07T08:02:45;9.70;;;7.60;;
37303;SDS011;23188;51.188;16.374;2024-01-07T08:06:48;9.10;;;7.10;;
37303;SDS011;23188;51.188;16.374;2024-01-07T08:10:52;12.20;;;7.10;;
37303;SDS011;23188;51.188;16.374;2024-01-07T08:14:55;10.30;;;6.40;;
37303;SDS011;23188;51.188;16.374;2024-01-07T08:18:58;11.50;;;8.50;;
37303;SDS011;23188;51.188;16.374;2024-01-07T08:23:02;12.00;;;8.00;;
37303;SDS011;23188;51.188;16.374;2024-01-07T08:27:05;11.90;;;10.30;;
37303;SDS011;23188;51.188;16.374;2024-01-07T08:31:08;14.70;;;9.40;;
37303;SDS011;23188;51.188;16.374;2024-01-07T08:35:11;10.70;;;8.10;;
37303;SDS011;23188;51.188;16.374;2024-01-07T08:39:17;12.00;;;7.20;;
37303;SDS011;23188;51.188;16.374;2024-01-07T08:43:20;8.00;;;5.60;;
37303;SDS011;23188;51.188;16.374;2024-01-07T08:47:23;7.70;;;5.70;;
37303;SDS011;23188;51.188;16.374;2024-01-07T08:51:27;6.90;;;4.80;;
37303;SDS011;23188;51.188;16.374;2024-01-07T08:55:32;7.80;;;5.40;;
37303;SDS011;23188;51.188;16.374;2024-01-07T08:59:35;7.00;;;4.80;;
37303;SDS011;23188;51.188;16.374;2024-01-07T09:03:39;4.30;;;3.60;;
37303;SDS011;23188;51.188;16.374;2024-01-07T09:07:42;3.30;;;2.70;;
37303;SDS011;23188;51.188;16.374;2024-01-07T09:11:46;4.70;;;3.60;;
37303;SDS011;23188;51.188;16.374;2024-01-07T09:15:49;8.10;;;5.10;;
37303;SDS011;23188;51.188;16.374;2024-01-07T09:19:52;7.70;;;3.60;;
37303;SDS011;23188;51.188;16.374;2024-01-07T09:23:55;5.10;;;3.30;;
37303;SDS011;23188;51.188;16.374;2024-01-07T09:27:59;3.40;;;3.10;;
37303;SDS011;23188;51.188;16.374;2024-01-07T09:32:02;5.40;;;3.20;;
37303;SDS011;23188;51.188;16.374;2024-01-07T09:36:06;5.60;;;4.30;;
37303;SDS011;23188;51.188;16.374;2024-01-07T09:40:27;8.70;;;3.90;;
37303;SDS011;23188;51.188;16.374;2024-01-07T09:44:31;6.20;;;4.50;;
37303;SDS011;23188;51.188;16.374;2024-01-07T09:48:34;4.90;;;3.90;;
37303;SDS011;23188;51.188;16.374;2024-01-07T09:52:42;6.00;;;3.30;;
37303;SDS011;23188;51.188;16.374;2024-01-07T09:56:55;6.30;;;4.90;;
37303;SDS011;23188;51.188;16.374;2024-01-07T10:01:04;6.10;;;4.10;;
37303;SDS011;23188;51.188;16.374;2024-01-07T10:05:09;9.40;;;4.50;;
37303;SDS011;23188;51.188;16.374;2024-01-07T10:09:12;6.90;;;5.40;;
37303;SDS011;23188;51.188;16.374;2024-01-07T10:13:16;6.50;;;4.70;;
37303;SDS011;23188;51.188;16.374;2024-01-07T10:17:19;6.50;;;4.70;;
37303;SDS011;23188;51.188;16.374;2024-01-07T10:21:22;8.10;;;5.10;;
37303;SDS011;23188;51.188;16.374;2024-01-07T10:25:25;8.60;;;4.60;;
37303;SDS011;23188;51.188;16.374;2024-01-07T10:29:28;10.00;;;7.00;;
37303;SDS011;23188;51.188;16.374;2024-01-07T10:33:32;8.50;;;5.40;;
37303;SDS011;23188;51.188;16.374;2024-01-07T10:37:38;10.30;;;6.90;;
37303;SDS011;23188;51.188;16.374;2024-01-07T10:41:42;8.10;;;5.30;;
37303;SDS011;23188;51.188;16.374;2024-01-07T10:45:48;8.60;;;4.50;;
37303;SDS011;23188;51.188;16.374;2024-01-07T10:49:53;11.40;;;7.00;;
37303;SDS011;23188;51.188;16.374;2024-01-07T10:54:01;10.70;;;5.70;;
37303;SDS011;23188;51.188;16.374;2024-01-07T10:58:04;13.00;;;6.80;;
37303;SDS011;23188;51.188;16.374;2024-01-07T11:02:08;7.10;;;4.70;;
37303;SDS011;23188;51.188;16.374;2024-01-07T11:10:58;10.70;;;7.20;;
37303;SDS011;23188;51.188;16.374;2024-01-07T11:15:07;11.70;;;6.20;;
37303;SDS011;23188;51.188;16.374;2024-01-07T11:19:13;13.00;;;7.60;;
37303;SDS011;23188;51.188;16.374;2024-01-07T11:27:31;17.60;;;6.50;;
37303;SDS011;23188;51.188;16.374;2024-01-07T11:31:45;12.40;;;6.80;;
37303;SDS011;23188;51.188;16.374;2024-01-07T11:35:54;12.70;;;8.00;;
37303;SDS011;23188;51.188;16.374;2024-01-07T11:40:05;9.90;;;6.20;;
37303;SDS011;23188;51.188;16.374;2024-01-07T11:44:09;12.10;;;8.10;;
37303;SDS011;23188;51.188;16.374;2024-01-07T11:48:14;13.10;;;8.80;;
37303;SDS011;23188;51.188;16.374;2024-01-07T11:52:18;13.80;;;7.90;;
37303;SDS011;23188;51.188;16.374;2024-01-07T11:56:22;14.40;;;8.90;;
37303;SDS011;23188;51.188;16.374;2024-01-07T12:00:25;12.30;;;8.70;;
37303;SDS011;23188;51.188;16.374;2024-01-07T12:04:29;15.30;;;9.40;;
37303;SDS011;23188;51.188;16.374;2024-01-07T12:08:32;13.10;;;10.10;;
37303;SDS011;23188;51.188;16.374;2024-01-07T12:12:35;18.90;;;10.50;;
37303;SDS011;23188;51.188;16.374;2024-01-07T12:16:38;15.10;;;10.30;;
37303;SDS011;23188;51.188;16.374;2024-01-07T12:20:42;15.80;;;9.80;;
37303;SDS011;23188;51.188;16.374;2024-01-07T12:25:02;14.90;;;10.30;;
37303;SDS011;23188;51.188;16.374;2024-01-07T12:29:06;19.20;;;12.20;;
37303;SDS011;23188;51.188;16.374;2024-01-07T12:33:10;14.50;;;10.10;;
37303;SDS011;23188;51.188;16.374;2024-01-07T12:37:14;19.10;;;11.30;;
37303;SDS011;23188;51.188;16.374;2024-01-07T12:41:17;24.00;;;13.40;;
37303;SDS011;23188;51.188;16.374;2024-01-07T12:45:20;16.10;;;10.60;;
37303;SDS011;23188;51.188;16.374;2024-01-07T12:49:24;14.10;;;10.10;;
37303;SDS011;23188;51.188;16.374;2024-01-07T12:53:27;15.00;;;10.10;;
37303;SDS011;23188;51.188;16.374;2024-01-07T12:57:31;17.30;;;10.50;;
37303;SDS011;23188;51.188;16.374;2024-01-07T13:01:35;24.50;;;14.00;;
37303;SDS011;23188;51.188;16.374;2024-01-07T13:05:39;10.40;;;8.70;;
37303;SDS011;23188;51.188;16.374;2024-01-07T13:09:44;14.50;;;10.30;;
37303;SDS011;23188;51.188;16.374;2024-01-07T13:13:47;15.70;;;9.80;;
37303;SDS011;23188;51.188;16.374;2024-01-07T13:17:51;18.60;;;10.20;;
37303;SDS011;23188;51.188;16.374;2024-01-07T13:21:54;14.40;;;8.70;;
37303;SDS011;23188;51.188;16.374;2024-01-07T13:26:04;17.10;;;9.00;;
37303;SDS011;23188;51.188;16.374;2024-01-07T13:30:09;16.30;;;10.30;;
37303;SDS011;23188;51.188;16.374;2024-01-07T13:34:12;24.60;;;11.80;;
37303;SDS011;23188;51.188;16.374;2024-01-07T13:38:17;19.30;;;10.20;;
37303;SDS011;23188;51.188;16.374;2024-01-07T13:42:20;16.60;;;11.10;;
37303;SDS011;23188;51.188;16.374;2024-01-07T13:46:23;18.30;;;13.20;;
37303;SDS011;23188;51.188;16.374;2024-01-07T13:50:29;21.70;;;11.10;;
37303;SDS011;23188;51.188;16.374;2024-01-07T13:54:32;23.80;;;13.00;;
37303;SDS011;23188;51.188;16.374;2024-01-07T13:58:35;21.70;;;12.40;;
37303;SDS011;23188;51.188;16.374;2024-01-07T14:02:39;21.60;;;12.60;;
37303;SDS011;23188;51.188;16.374;2024-01-07T14:06:43;26.90;;;12.70;;
37303;SDS011;23188;51.188;16.374;2024-01-07T14:10:48;19.00;;;12.60;;
37303;SDS011;23188;51.188;16.374;2024-01-07T14:14:51;17.40;;;11.70;;
37303;SDS011;23188;51.188;16.374;2024-01-07T14:18:54;18.40;;;11.90;;
37303;SDS011;23188;51.188;16.374;2024-01-07T14:22:58;21.60;;;11.80;;
37303;SDS011;23188;51.188;16.374;2024-01-07T14:27:02;22.00;;;13.40;;
37303;SDS011;23188;51.188;16.374;2024-01-07T14:31:05;17.60;;;11.00;;
37303;SDS011;23188;51.188;16.374;2024-01-07T14:35:11;17.70;;;9.90;;
37303;SDS011;23188;51.188;16.374;2024-01-07T14:39:15;13.50;;;7.50;;
37303;SDS011;23188;51.188;16.374;2024-01-07T14:43:19;21.40;;;13.40;;
37303;SDS011;23188;51.188;16.374;2024-01-07T14:47:22;19.80;;;14.30;;
37303;SDS011;23188;51.188;16.374;2024-01-07T14:51:26;13.70;;;9.20;;
37303;SDS011;23188;51.188;16.374;2024-01-07T14:55:29;18.30;;;9.60;;
37303;SDS011;23188;51.188;16.374;2024-01-07T14:59:32;18.80;;;10.30;;
37303;SDS011;23188;51.188;16.374;2024-01-07T15:03:35;19.50;;;12.80;;
37303;SDS011;23188;51.188;16.374;2024-01-07T15:07:39;22.10;;;11.40;;
37303;SDS011;23188;51.188;16.374;2024-01-07T15:11:42;25.10;;;12.90;;
37303;SDS011;23188;51.188;16.374;2024-01-07T15:15:47;22.20;;;14.00;;
37303;SDS011;23188;51.188;16.374;2024-01-07T15:19:51;18.00;;;14.20;;
37303;SDS011;23188;51.188;16.374;2024-01-07T15:23:54;20.50;;;12.30;;
37303;SDS011;23188;51.188;16.374;2024-01-07T15:27:58;19.70;;;12.90;;
37303;SDS011;23188;51.188;16.374;2024-01-07T15:32:01;19.10;;;11.00;;
37303;SDS011;23188;51.188;16.374;2024-01-07T15:36:05;16.90;;;10.90;;
37303;SDS011;23188;51.188;16.374;2024-01-07T15:40:09;18.10;;;10.30;;
37303;SDS011;23188;51.188;16.374;2024-01-07T15:44:13;21.00;;;10.00;;
37303;SDS011;23188;51.188;16.374;2024-01-07T15:48:16;23.70;;;13.20;;
37303;SDS011;23188;51.188;16.374;2024-01-07T15:52:19;22.40;;;13.40;;
37303;SDS011;23188;51.188;16.374;2024-01-07T15:56:23;21.70;;;10.90;;
37303;SDS011;23188;51.188;16.374;2024-01-07T16:00:27;19.40;;;11.40;;
37303;SDS011;23188;51.188;16.374;2024-01-07T16:04:30;21.10;;;12.50;;
37303;SDS011;23188;51.188;16.374;2024-01-07T16:08:34;19.10;;;10.50;;
37303;SDS011;23188;51.188;16.374;2024-01-07T16:12:37;22.10;;;12.90;;
37303;SDS011;23188;51.188;16.374;2024-01-07T16:16:40;20.50;;;13.70;;
37303;SDS011;23188;51.188;16.374;2024-01-07T16:20:44;20.20;;;10.90;;
37303;SDS011;23188;51.188;16.374;2024-01-07T16:24:47;19.60;;;9.40;;
37303;SDS011;23188;51.188;16.374;2024-01-07T16:28:51;24.50;;;13.80;;
37303;SDS011;23188;51.188;16.374;2024-01-07T16:32:55;36.20;;;14.30;;
37303;SDS011;23188;51.188;16.374;2024-01-07T16:36:58;24.90;;;13.00;;
37303;SDS011;23188;51.188;16.374;2024-01-07T16:41:02;24.30;;;14.20;;
37303;SDS011;23188;51.188;16.374;2024-01-07T16:45:07;24.20;;;13.10;;
37303;SDS011;23188;51.188;16.374;2024-01-07T16:49:13;20.80;;;11.80;;
37303;SDS011;23188;51.188;16.374;2024-01-07T16:53:36;25.60;;;13.70;;
37303;SDS011;23188;51.188;16.374;2024-01-07T16:57:39;22.50;;;12.00;;
37303;SDS011;23188;51.188;16.374;2024-01-07T17:01:43;20.30;;;13.20;;
37303;SDS011;23188;51.188;16.374;2024-01-07T17:05:47;24.70;;;14.80;;
37303;SDS011;23188;51.188;16.374;2024-01-07T17:09:50;23.60;;;12.50;;
37303;SDS011;23188;51.188;16.374;2024-01-07T17:13:54;22.50;;;11.30;;
37303;SDS011;23188;51.188;16.374;2024-01-07T17:17:57;15.30;;;10.20;;
37303;SDS011;23188;51.188;16.374;2024-01-07T17:22:01;17.90;;;11.50;;
37303;SDS011;23188;51.188;16.374;2024-01-07T17:26:04;18.00;;;12.40;;
37303;SDS011;23188;51.188;16.374;2024-01-07T17:30:07;25.10;;;13.00;;
37303;SDS011;23188;51.188;16.374;2024-01-07T17:34:11;23.90;;;14.50;;
37303;SDS011;23188;51.188;16.374;2024-01-07T17:38:14;20.90;;;12.10;;
37303;SDS011;23188;51.188;16.374;2024-01-07T17:42:21;16.10;;;12.50;;
37303;SDS011;23188;51.188;16.374;2024-01-07T17:46:26;15.00;;;9.70;;
37303;SDS011;23188;51.188;16.374;2024-01-07T17:50:29;25.60;;;12.40;;
37303;SDS011;23188;51.188;16.374;2024-01-07T17:54:33;20.70;;;13.00;;
37303;SDS011;23188;51.188;16.374;2024-01-07T17:58:39;24.00;;;13.10;;
37303;SDS011;23188;51.188;16.374;2024-01-07T18:02:42;20.60;;;15.00;;
37303;SDS011;23188;51.188;16.374;2024-01-07T18:06:46;24.10;;;11.90;;
37303;SDS011;23188;51.188;16.374;2024-01-07T18:10:49;23.50;;;13.20;;
37303;SDS011;23188;51.188;16.374;2024-01-07T18:14:52;29.80;;;13.40;;
37303;SDS011;23188;51.188;16.374;2024-01-07T18:18:57;20.20;;;13.40;;
37303;SDS011;23188;51.188;16.374;2024-01-07T18:23:01;25.40;;;12.60;;
37303;SDS011;23188;51.188;16.374;2024-01-07T18:27:04;26.50;;;13.40;;
37303;SDS011;23188;51.188;16.374;2024-01-07T18:31:08;24.30;;;13.00;;
37303;SDS011;23188;51.188;16.374;2024-01-07T18:35:13;27.00;;;16.40;;
37303;SDS011;23188;51.188;16.374;2024-01-07T18:39:16;20.60;;;13.80;;
37303;SDS011;23188;51.188;16.374;2024-01-07T18:43:20;19.60;;;11.90;;
37303;SDS011;23188;51.188;16.374;2024-01-07T18:47:23;19.90;;;10.70;;
37303;SDS011;23188;51.188;16.374;2024-01-07T18:51:28;22.80;;;12.90;;
37303;SDS011;23188;51.188;16.374;2024-01-07T18:55:33;19.80;;;12.00;;
37303;SDS011;23188;51.188;16.374;2024-01-07T18:59:39;26.40;;;13.50;;
37303;SDS011;23188;51.188;16.374;2024-01-07T19:03:42;27.10;;;13.40;;
37303;SDS011;23188;51.188;16.374;2024-01-07T19:07:45;21.20;;;12.30;;
37303;SDS011;23188;51.188;16.374;2024-01-07T19:11:48;19.10;;;12.80;;
37303;SDS011;23188;51.188;16.374;2024-01-07T19:15:52;22.50;;;12.30;;
37303;SDS011;23188;51.188;16.374;2024-01-07T19:19:55;15.50;;;10.50;;
37303;SDS011;23188;51.188;16.374;2024-01-07T19:23:59;21.20;;;11.90;;
37303;SDS011;23188;51.188;16.374;2024-01-07T19:28:02;20.70;;;12.70;;
37303;SDS011;23188;51.188;16.374;2024-01-07T19:32:06;17.70;;;10.20;;
37303;SDS011;23188;51.188;16.374;2024-01-07T19:36:09;20.40;;;12.10;;
37303;SDS011;23188;51.188;16.374;2024-01-07T19:40:13;28.10;;;15.20;;
37303;SDS011;23188;51.188;16.374;2024-01-07T19:44:16;18.50;;;12.10;;
37303;SDS011;23188;51.188;16.374;2024-01-07T19:48:22;17.70;;;12.10;;
37303;SDS011;23188;51.188;16.374;2024-01-07T19:52:26;25.30;;;14.10;;
37303;SDS011;23188;51.188;16.374;2024-01-07T19:56:31;26.10;;;12.20;;
37303;SDS011;23188;51.188;16.374;2024-01-07T20:00:34;15.30;;;11.70;;
37303;SDS011;23188;51.188;16.374;2024-01-07T20:04:37;20.40;;;14.40;;
37303;SDS011;23188;51.188;16.374;2024-01-07T20:08:42;22.30;;;11.70;;
37303;SDS011;23188;51.188;16.374;2024-01-07T20:12:47;33.70;;;12.60;;
37303;SDS011;23188;51.188;16.374;2024-01-07T20:16:50;26.50;;;14.20;;
37303;SDS011;23188;51.188;16.374;2024-01-07T20:20:54;25.20;;;14.90;;
37303;SDS011;23188;51.188;16.374;2024-01-07T20:24:57;24.60;;;12.80;;
37303;SDS011;23188;51.188;16.374;2024-01-07T20:29:00;20.70;;;12.80;;
37303;SDS011;23188;51.188;16.374;2024-01-07T20:33:10;35.70;;;15.10;;
37303;SDS011;23188;51.188;16.374;2024-01-07T20:37:14;24.00;;;12.90;;
37303;SDS011;23188;51.188;16.374;2024-01-07T20:41:18;23.20;;;12.90;;
37303;SDS011;23188;51.188;16.374;2024-01-07T20:45:22;23.90;;;10.80;;
37303;SDS011;23188;51.188;16.374;2024-01-07T20:49:28;19.20;;;11.40;;
37303;SDS011;23188;51.188;16.374;2024-01-07T20:53:31;27.20;;;14.00;;
37303;SDS011;23188;51.188;16.374;2024-01-07T20:57:34;27.20;;;15.90;;
37303;SDS011;23188;51.188;16.374;2024-01-07T21:01:38;28.20;;;15.50;;
37303;SDS011;23188;51.188;16.374;2024-01-07T21:05:42;18.90;;;10.90;;
37303;SDS011;23188;51.188;16.374;2024-01-07T21:09:46;19.80;;;13.60;;
37303;SDS011;23188;51.188;16.374;2024-01-07T21:13:50;24.60;;;11.80;;
37303;SDS011;23188;51.188;16.374;2024-01-07T21:17:53;27.80;;;14.70;;
37303;SDS011;23188;51.188;16.374;2024-01-07T21:22:02;24.60;;;14.60;;
37303;SDS011;23188;51.188;16.374;2024-01-07T21:26:06;29.30;;;13.10;;
37303;SDS011;23188;51.188;16.374;2024-01-07T21:30:09;21.90;;;11.50;;
37303;SDS011;23188;51.188;16.374;2024-01-07T21:34:13;20.90;;;13.30;;
37303;SDS011;23188;51.188;16.374;2024-01-07T21:38:16;26.80;;;16.60;;
37303;SDS011;23188;51.188;16.374;2024-01-07T21:42:19;25.60;;;14.80;;
37303;SDS011;23188;51.188;16.374;2024-01-07T21:46:23;28.80;;;16.60;;
37303;SDS011;23188;51.188;16.374;2024-01-07T21:50:26;22.20;;;14.60;;
37303;SDS011;23188;51.188;16.374;2024-01-07T21:54:29;21.40;;;13.40;;
37303;SDS011;23188;51.188;16.374;2024-01-07T21:58:32;24.40;;;12.50;;
37303;SDS011;23188;51.188;16.374;2024-01-07T22:02:35;34.00;;;16.30;;
37303;SDS011;23188;51.188;16.374;2024-01-07T22:06:39;30.00;;;16.40;;
37303;SDS011;23188;51.188;16.374;2024-01-07T22:10:43;26.40;;;17.70;;
37303;SDS011;23188;51.188;16.374;2024-01-07T22:14:46;30.80;;;18.00;;
37303;SDS011;23188;51.188;16.374;2024-01-07T22:18:49;30.10;;;15.10;;
37303;SDS011;23188;51.188;16.374;2024-01-07T22:22:53;34.40;;;16.60;;
37303;SDS011;23188;51.188;16.374;2024-01-07T22:26:56;31.00;;;19.20;;
37303;SDS011;23188;51.188;16.374;2024-01-07T22:30:59;28.00;;;16.20;;
37303;SDS011;23188;51.188;16.374;2024-01-07T22:35:02;27.70;;;17.50;;
37303;SDS011;23188;51.188;16.374;2024-01-07T22:39:06;29.40;;;16.80;;
37303;SDS011;23188;51.188;16.374;2024-01-07T22:47:19;29.50;;;16.80;;
37303;SDS011;23188;51.188;16.374;2024-01-07T22:51:23;33.90;;;19.20;;
37303;SDS011;23188;51.188;16.374;2024-01-07T22:55:26;39.80;;;20.70;;
37303;SDS011;23188;51.188;16.374;2024-01-07T22:59:29;28.40;;;18.70;;
37303;SDS011;23188;51.188;16.374;2024-01-07T23:03:33;31.40;;;19.50;;
37303;SDS011;23188;51.188;16.374;2024-01-07T23:07:36;33.90;;;17.60;;
37303;SDS011;23188;51.188;16.374;2024-01-07T23:11:39;29.40;;;16.70;;
37303;SDS011;23188;51.188;16.374;2024-01-07T23:15:43;31.30;;;21.00;;
37303;SDS011;23188;51.188;16.374;2024-01-07T23:19:46;33.50;;;18.00;;
37303;SDS011;23188;51.188;16.374;2024-01-07T23:23:49;31.40;;;20.00;;
37303;SDS011;23188;51.188;16.374;2024-01-07T23:27:52;29.00;;;17.20;;
37303;SDS011;23188;51.188;16.374;2024-01-07T23:31:58;29.60;;;17.00;;
37303;SDS011;23188;51.188;16.374;2024-01-07T23:36:05;36.00;;;20.90;;
37303;SDS011;23188;51.188;16.374;2024-01-07T23:40:11;27.00;;;17.20;;
37303;SDS011;23188;51.188;16.374;2024-01-07T23:44:15;36.30;;;18.10;;
37303;SDS011;23188;51.188;16.374;2024-01-07T23:48:18;24.70;;;18.90;;
37303;SDS011;23188;51.188;16.374;2024-01-07T23:52:22;30.40;;;16.90;;